首页
METAR-TAF:

METAR-TAF

机场 :

里米尼, 意大利

纬度: 44-02N, 经度: 012-37E, 海拔: 12米

当前天气观测

该预报发布于38分钟前的03:20 UTC
风速2节,风向多变
温度 2°C
湿度 75%
气压 1021 hPa
能见度10公里或以上

METAR: LIPR 210320Z AUTO VRB02KT 9999 NCD 02/M02 Q1021

时间: 04:58 (03:58 UTC)

预报

该预报发布于1小时和58分钟前的02:00 UTC
预报有效从21日的 03点(UTC)到 21日的 12点(UTC)
风速5节,风向多变
能见度10公里或以上
1500米以下无云,无积雨云

TAF: LIPR 210200Z 2103/2112 VRB05KT CAVOK

超过4000个机场的气象观测和天气预报(METAR&TAF报告)。

可查询的气象台以黄色和红色小点在地图上表示。

将鼠标移到小点上方,可查看气象台名称。

然后点击查看天气观测和预报。

如需切换地图:点击带黑十字的绿色按钮放大地图;点击带横线的绿色按钮缩小地图;或者点击绿色箭头查看邻近地区的地图。


METAR-TAF: